sensor_id;sensor_type;location;lat;lon;timestamp;P1;durP1;ratioP1;P2;durP2;ratioP2
38865;SDS011;62686;48.984;8.394;2022-12-18T00:01:29;123.43;;;59.60;;
38865;SDS011;62686;48.984;8.394;2022-12-18T00:03:59;113.87;;;55.67;;
38865;SDS011;62686;48.984;8.394;2022-12-18T00:06:29;107.37;;;51.47;;
38865;SDS011;62686;48.984;8.394;2022-12-18T00:08:59;112.80;;;51.30;;
38865;SDS011;62686;48.984;8.394;2022-12-18T00:11:28;119.67;;;53.43;;
38865;SDS011;62686;48.984;8.394;2022-12-18T00:13:59;120.17;;;52.30;;
38865;SDS011;62686;48.984;8.394;2022-12-18T00:20:15;113.93;;;53.83;;
38865;SDS011;62686;48.984;8.394;2022-12-18T00:22:47;115.47;;;52.50;;
38865;SDS011;62686;48.984;8.394;2022-12-18T00:25:15;114.90;;;54.23;;
38865;SDS011;62686;48.984;8.394;2022-12-18T00:27:43;116.87;;;53.47;;
38865;SDS011;62686;48.984;8.394;2022-12-18T00:30:13;119.83;;;53.57;;
38865;SDS011;62686;48.984;8.394;2022-12-18T00:32:41;106.60;;;51.07;;
38865;SDS011;62686;48.984;8.394;2022-12-18T00:35:09;117.97;;;50.33;;
38865;SDS011;62686;48.984;8.394;2022-12-18T00:37:37;110.43;;;51.43;;
38865;SDS011;62686;48.984;8.394;2022-12-18T00:40:06;116.07;;;52.63;;
38865;SDS011;62686;48.984;8.394;2022-12-18T00:42:35;124.67;;;53.07;;
38865;SDS011;62686;48.984;8.394;2022-12-18T00:45:21;115.43;;;50.67;;
38865;SDS011;62686;48.984;8.394;2022-12-18T00:47:52;106.73;;;49.67;;
38865;SDS011;62686;48.984;8.394;2022-12-18T00:50:20;119.30;;;55.03;;
38865;SDS011;62686;48.984;8.394;2022-12-18T00:52:49;116.17;;;52.83;;
38865;SDS011;62686;48.984;8.394;2022-12-18T00:55:17;113.80;;;54.23;;
38865;SDS011;62686;48.984;8.394;2022-12-18T00:57:45;119.57;;;53.90;;
38865;SDS011;62686;48.984;8.394;2022-12-18T01:00:14;128.60;;;56.60;;
38865;SDS011;62686;48.984;8.394;2022-12-18T01:02:44;126.93;;;55.13;;
38865;SDS011;62686;48.984;8.394;2022-12-18T01:05:12;131.77;;;53.90;;
38865;SDS011;62686;48.984;8.394;2022-12-18T01:07:41;119.00;;;52.03;;
38865;SDS011;62686;48.984;8.394;2022-12-18T01:10:09;132.73;;;56.43;;
38865;SDS011;62686;48.984;8.394;2022-12-18T01:12:39;130.60;;;54.80;;
38865;SDS011;62686;48.984;8.394;2022-12-18T01:15:07;119.10;;;53.37;;
38865;SDS011;62686;48.984;8.394;2022-12-18T01:17:37;129.10;;;52.80;;
38865;SDS011;62686;48.984;8.394;2022-12-18T01:20:07;124.70;;;55.43;;
38865;SDS011;62686;48.984;8.394;2022-12-18T01:22:36;113.23;;;52.43;;
38865;SDS011;62686;48.984;8.394;2022-12-18T01:25:04;113.27;;;49.83;;
38865;SDS011;62686;48.984;8.394;2022-12-18T01:27:33;118.13;;;51.03;;
38865;SDS011;62686;48.984;8.394;2022-12-18T01:30:01;119.47;;;50.93;;
38865;SDS011;62686;48.984;8.394;2022-12-18T01:32:30;125.77;;;54.17;;
38865;SDS011;62686;48.984;8.394;2022-12-18T01:34:59;128.13;;;54.23;;
38865;SDS011;62686;48.984;8.394;2022-12-18T01:37:28;116.40;;;50.17;;
38865;SDS011;62686;48.984;8.394;2022-12-18T01:39:56;115.67;;;51.33;;
38865;SDS011;62686;48.984;8.394;2022-12-18T01:42:24;120.27;;;50.63;;
38865;SDS011;62686;48.984;8.394;2022-12-18T01:47:36;110.20;;;49.47;;
38865;SDS011;62686;48.984;8.394;2022-12-18T01:50:08;110.53;;;51.93;;
38865;SDS011;62686;48.984;8.394;2022-12-18T01:52:40;120.93;;;51.30;;
38865;SDS011;62686;48.984;8.394;2022-12-18T01:55:10;114.33;;;49.43;;
38865;SDS011;62686;48.984;8.394;2022-12-18T01:57:39;110.10;;;51.13;;
38865;SDS011;62686;48.984;8.394;2022-12-18T02:00:09;107.03;;;47.63;;
38865;SDS011;62686;48.984;8.394;2022-12-18T02:02:40;107.60;;;48.17;;
38865;SDS011;62686;48.984;8.394;2022-12-18T02:05:09;100.17;;;48.57;;
38865;SDS011;62686;48.984;8.394;2022-12-18T02:07:42;100.50;;;47.80;;
38865;SDS011;62686;48.984;8.394;2022-12-18T02:10:20;115.77;;;49.93;;
38865;SDS011;62686;48.984;8.394;2022-12-18T02:12:53;99.97;;;46.97;;
38865;SDS011;62686;48.984;8.394;2022-12-18T02:15:26;110.60;;;47.43;;
38865;SDS011;62686;48.984;8.394;2022-12-18T02:18:03;99.33;;;45.87;;
38865;SDS011;62686;48.984;8.394;2022-12-18T02:20:35;112.80;;;49.23;;
38865;SDS011;62686;48.984;8.394;2022-12-18T02:23:11;110.67;;;48.60;;
38865;SDS011;62686;48.984;8.394;2022-12-18T02:28:43;104.20;;;48.70;;
38865;SDS011;62686;48.984;8.394;2022-12-18T02:31:15;115.57;;;50.23;;
38865;SDS011;62686;48.984;8.394;2022-12-18T02:33:48;102.50;;;44.73;;
38865;SDS011;62686;48.984;8.394;2022-12-18T02:36:17;92.43;;;44.00;;
38865;SDS011;62686;48.984;8.394;2022-12-18T02:38:47;97.93;;;45.57;;
38865;SDS011;62686;48.984;8.394;2022-12-18T02:41:19;99.53;;;46.33;;
38865;SDS011;62686;48.984;8.394;2022-12-18T02:43:48;98.80;;;46.53;;
38865;SDS011;62686;48.984;8.394;2022-12-18T02:46:27;100.47;;;47.13;;
38865;SDS011;62686;48.984;8.394;2022-12-18T02:49:06;106.60;;;48.50;;
38865;SDS011;62686;48.984;8.394;2022-12-18T02:51:45;95.57;;;45.30;;
38865;SDS011;62686;48.984;8.394;2022-12-18T02:54:20;97.37;;;44.23;;
38865;SDS011;62686;48.984;8.394;2022-12-18T02:57:03;101.97;;;47.73;;
38865;SDS011;62686;48.984;8.394;2022-12-18T02:59:38;96.97;;;44.70;;
38865;SDS011;62686;48.984;8.394;2022-12-18T03:02:16;98.50;;;44.57;;
38865;SDS011;62686;48.984;8.394;2022-12-18T03:04:49;93.63;;;43.83;;
38865;SDS011;62686;48.984;8.394;2022-12-18T03:07:28;91.17;;;47.03;;
38865;SDS011;62686;48.984;8.394;2022-12-18T03:10:04;87.87;;;43.63;;
38865;SDS011;62686;48.984;8.394;2022-12-18T03:12:37;86.17;;;43.90;;
38865;SDS011;62686;48.984;8.394;2022-12-18T03:15:09;87.10;;;41.53;;
38865;SDS011;62686;48.984;8.394;2022-12-18T03:17:44;83.47;;;40.90;;
38865;SDS011;62686;48.984;8.394;2022-12-18T03:20:17;91.43;;;43.37;;
38865;SDS011;62686;48.984;8.394;2022-12-18T03:22:47;85.67;;;43.17;;
38865;SDS011;62686;48.984;8.394;2022-12-18T03:25:19;81.83;;;40.37;;
38865;SDS011;62686;48.984;8.394;2022-12-18T03:27:50;79.50;;;40.40;;
38865;SDS011;62686;48.984;8.394;2022-12-18T03:30:20;76.90;;;39.73;;
38865;SDS011;62686;48.984;8.394;2022-12-18T03:32:49;76.63;;;42.57;;
38865;SDS011;62686;48.984;8.394;2022-12-18T03:35:26;84.40;;;42.00;;
38865;SDS011;62686;48.984;8.394;2022-12-18T03:37:59;79.73;;;40.67;;
38865;SDS011;62686;48.984;8.394;2022-12-18T03:40:29;75.47;;;38.47;;
38865;SDS011;62686;48.984;8.394;2022-12-18T03:43:07;79.30;;;40.57;;
38865;SDS011;62686;48.984;8.394;2022-12-18T03:45:41;75.37;;;39.33;;
38865;SDS011;62686;48.984;8.394;2022-12-18T03:48:16;81.80;;;40.37;;
38865;SDS011;62686;48.984;8.394;2022-12-18T03:50:49;86.53;;;42.50;;
38865;SDS011;62686;48.984;8.394;2022-12-18T03:53:24;83.77;;;40.83;;
38865;SDS011;62686;48.984;8.394;2022-12-18T03:55:59;87.63;;;41.33;;
38865;SDS011;62686;48.984;8.394;2022-12-18T03:58:31;85.20;;;41.63;;
38865;SDS011;62686;48.984;8.394;2022-12-18T04:01:02;80.63;;;40.63;;
38865;SDS011;62686;48.984;8.394;2022-12-18T04:03:32;90.43;;;40.60;;
38865;SDS011;62686;48.984;8.394;2022-12-18T04:06:03;84.40;;;42.03;;
38865;SDS011;62686;48.984;8.394;2022-12-18T04:08:32;88.40;;;41.80;;
38865;SDS011;62686;48.984;8.394;2022-12-18T04:11:02;81.37;;;39.57;;
38865;SDS011;62686;48.984;8.394;2022-12-18T04:13:34;92.83;;;45.37;;
38865;SDS011;62686;48.984;8.394;2022-12-18T04:16:04;94.30;;;45.20;;
38865;SDS011;62686;48.984;8.394;2022-12-18T04:18:32;94.10;;;42.80;;
38865;SDS011;62686;48.984;8.394;2022-12-18T04:21:00;101.73;;;44.93;;
38865;SDS011;62686;48.984;8.394;2022-12-18T04:23:28;98.67;;;44.47;;
38865;SDS011;62686;48.984;8.394;2022-12-18T04:25:56;92.63;;;42.90;;
38865;SDS011;62686;48.984;8.394;2022-12-18T04:28:25;98.93;;;46.20;;
38865;SDS011;62686;48.984;8.394;2022-12-18T04:30:54;97.90;;;42.73;;
38865;SDS011;62686;48.984;8.394;2022-12-18T04:33:22;87.93;;;42.20;;
38865;SDS011;62686;48.984;8.394;2022-12-18T04:35:50;95.83;;;42.80;;
38865;SDS011;62686;48.984;8.394;2022-12-18T04:38:18;100.53;;;44.93;;
38865;SDS011;62686;48.984;8.394;2022-12-18T04:40:46;99.90;;;44.60;;
38865;SDS011;62686;48.984;8.394;2022-12-18T04:43:14;89.67;;;41.50;;
38865;SDS011;62686;48.984;8.394;2022-12-18T04:45:42;90.27;;;41.57;;
38865;SDS011;62686;48.984;8.394;2022-12-18T04:48:11;80.90;;;39.30;;
38865;SDS011;62686;48.984;8.394;2022-12-18T04:50:39;84.80;;;39.40;;
38865;SDS011;62686;48.984;8.394;2022-12-18T04:53:07;81.17;;;41.03;;
38865;SDS011;62686;48.984;8.394;2022-12-18T04:55:35;85.37;;;39.83;;
38865;SDS011;62686;48.984;8.394;2022-12-18T04:58:03;88.40;;;40.60;;
38865;SDS011;62686;48.984;8.394;2022-12-18T05:00:31;87.20;;;41.60;;
38865;SDS011;62686;48.984;8.394;2022-12-18T05:03:00;92.20;;;41.03;;
38865;SDS011;62686;48.984;8.394;2022-12-18T05:05:30;91.40;;;41.77;;
38865;SDS011;62686;48.984;8.394;2022-12-18T05:07:58;89.53;;;41.30;;
38865;SDS011;62686;48.984;8.394;2022-12-18T05:10:26;111.60;;;41.73;;
38865;SDS011;62686;48.984;8.394;2022-12-18T05:12:56;96.23;;;40.33;;
38865;SDS011;62686;48.984;8.394;2022-12-18T05:15:28;108.37;;;44.47;;
38865;SDS011;62686;48.984;8.394;2022-12-18T05:17:56;91.70;;;40.53;;
38865;SDS011;62686;48.984;8.394;2022-12-18T05:20:25;107.27;;;47.93;;
38865;SDS011;62686;48.984;8.394;2022-12-18T05:22:55;89.60;;;42.10;;
38865;SDS011;62686;48.984;8.394;2022-12-18T05:25:23;89.90;;;41.30;;
38865;SDS011;62686;48.984;8.394;2022-12-18T05:27:51;83.23;;;38.33;;
38865;SDS011;62686;48.984;8.394;2022-12-18T05:30:19;82.43;;;41.77;;
38865;SDS011;62686;48.984;8.394;2022-12-18T05:32:48;78.83;;;37.53;;
38865;SDS011;62686;48.984;8.394;2022-12-18T05:35:16;92.23;;;36.97;;
38865;SDS011;62686;48.984;8.394;2022-12-18T05:37:44;79.00;;;38.20;;
38865;SDS011;62686;48.984;8.394;2022-12-18T05:40:14;72.60;;;36.97;;
38865;SDS011;62686;48.984;8.394;2022-12-18T05:42:42;78.10;;;36.27;;
38865;SDS011;62686;48.984;8.394;2022-12-18T05:45:10;72.87;;;35.93;;
38865;SDS011;62686;48.984;8.394;2022-12-18T05:47:38;73.20;;;36.17;;
38865;SDS011;62686;48.984;8.394;2022-12-18T05:50:06;75.73;;;37.13;;
38865;SDS011;62686;48.984;8.394;2022-12-18T05:52:35;68.70;;;33.50;;
38865;SDS011;62686;48.984;8.394;2022-12-18T05:55:03;78.93;;;37.17;;
38865;SDS011;62686;48.984;8.394;2022-12-18T05:57:33;75.60;;;39.17;;
38865;SDS011;62686;48.984;8.394;2022-12-18T06:00:01;71.80;;;36.27;;
38865;SDS011;62686;48.984;8.394;2022-12-18T06:02:29;68.00;;;35.50;;
38865;SDS011;62686;48.984;8.394;2022-12-18T06:04:57;69.23;;;36.33;;
38865;SDS011;62686;48.984;8.394;2022-12-18T06:07:26;71.43;;;36.30;;
38865;SDS011;62686;48.984;8.394;2022-12-18T06:09:54;72.27;;;34.90;;
38865;SDS011;62686;48.984;8.394;2022-12-18T06:12:22;68.83;;;33.63;;
38865;SDS011;62686;48.984;8.394;2022-12-18T06:14:51;70.83;;;35.53;;
38865;SDS011;62686;48.984;8.394;2022-12-18T06:17:19;73.23;;;34.20;;
38865;SDS011;62686;48.984;8.394;2022-12-18T06:19:47;67.03;;;34.53;;
38865;SDS011;62686;48.984;8.394;2022-12-18T06:25:25;75.50;;;35.03;;
38865;SDS011;62686;48.984;8.394;2022-12-18T06:27:53;71.13;;;36.67;;
38865;SDS011;62686;48.984;8.394;2022-12-18T06:30:22;78.03;;;37.87;;
38865;SDS011;62686;48.984;8.394;2022-12-18T06:32:50;80.37;;;38.90;;
38865;SDS011;62686;48.984;8.394;2022-12-18T06:35:21;68.93;;;34.53;;
38865;SDS011;62686;48.984;8.394;2022-12-18T06:37:49;95.57;;;44.40;;
38865;SDS011;62686;48.984;8.394;2022-12-18T06:40:18;85.40;;;39.47;;
38865;SDS011;62686;48.984;8.394;2022-12-18T06:42:46;71.63;;;36.57;;
38865;SDS011;62686;48.984;8.394;2022-12-18T06:45:14;77.57;;;34.07;;
38865;SDS011;62686;48.984;8.394;2022-12-18T06:47:43;83.80;;;37.57;;
38865;SDS011;62686;48.984;8.394;2022-12-18T06:50:11;85.17;;;36.97;;
38865;SDS011;62686;48.984;8.394;2022-12-18T06:52:39;80.50;;;36.33;;
38865;SDS011;62686;48.984;8.394;2022-12-18T06:55:10;78.97;;;36.77;;
38865;SDS011;62686;48.984;8.394;2022-12-18T06:57:38;79.93;;;35.30;;
38865;SDS011;62686;48.984;8.394;2022-12-18T07:00:06;77.97;;;37.80;;
38865;SDS011;62686;48.984;8.394;2022-12-18T07:02:35;70.07;;;34.20;;
38865;SDS011;62686;48.984;8.394;2022-12-18T07:05:05;80.27;;;37.73;;
38865;SDS011;62686;48.984;8.394;2022-12-18T07:07:35;91.60;;;38.53;;
38865;SDS011;62686;48.984;8.394;2022-12-18T07:10:04;78.43;;;36.57;;
38865;SDS011;62686;48.984;8.394;2022-12-18T07:15:00;85.50;;;36.53;;
38865;SDS011;62686;48.984;8.394;2022-12-18T07:17:29;83.90;;;37.47;;
38865;SDS011;62686;48.984;8.394;2022-12-18T07:19:57;80.93;;;36.37;;
38865;SDS011;62686;48.984;8.394;2022-12-18T07:22:27;76.30;;;36.27;;
38865;SDS011;62686;48.984;8.394;2022-12-18T07:24:55;87.67;;;36.53;;
38865;SDS011;62686;48.984;8.394;2022-12-18T07:27:25;87.13;;;39.00;;
38865;SDS011;62686;48.984;8.394;2022-12-18T07:29:53;82.67;;;37.33;;
38865;SDS011;62686;48.984;8.394;2022-12-18T07:32:21;76.50;;;36.07;;
38865;SDS011;62686;48.984;8.394;2022-12-18T07:34:49;76.10;;;36.43;;
38865;SDS011;62686;48.984;8.394;2022-12-18T07:37:17;80.93;;;34.97;;
38865;SDS011;62686;48.984;8.394;2022-12-18T07:39:46;78.33;;;34.60;;
38865;SDS011;62686;48.984;8.394;2022-12-18T07:42:14;81.10;;;36.87;;
38865;SDS011;62686;48.984;8.394;2022-12-18T07:45:01;75.90;;;36.30;;
38865;SDS011;62686;48.984;8.394;2022-12-18T07:47:33;68.37;;;34.07;;
38865;SDS011;62686;48.984;8.394;2022-12-18T07:50:02;65.73;;;32.20;;
38865;SDS011;62686;48.984;8.394;2022-12-18T07:52:31;75.80;;;33.27;;
38865;SDS011;62686;48.984;8.394;2022-12-18T07:55:00;68.33;;;33.77;;
38865;SDS011;62686;48.984;8.394;2022-12-18T07:57:28;71.23;;;31.70;;
38865;SDS011;62686;48.984;8.394;2022-12-18T08:00:14;73.07;;;33.07;;
38865;SDS011;62686;48.984;8.394;2022-12-18T08:02:43;70.00;;;33.93;;
38865;SDS011;62686;48.984;8.394;2022-12-18T08:05:11;68.93;;;33.20;;
38865;SDS011;62686;48.984;8.394;2022-12-18T08:07:39;71.23;;;33.33;;
38865;SDS011;62686;48.984;8.394;2022-12-18T08:10:09;72.87;;;32.53;;
38865;SDS011;62686;48.984;8.394;2022-12-18T08:12:37;68.13;;;32.73;;
38865;SDS011;62686;48.984;8.394;2022-12-18T08:15:05;69.60;;;32.20;;
38865;SDS011;62686;48.984;8.394;2022-12-18T08:17:34;72.33;;;33.23;;
38865;SDS011;62686;48.984;8.394;2022-12-18T08:20:02;78.40;;;33.93;;
38865;SDS011;62686;48.984;8.394;2022-12-18T08:22:30;70.63;;;32.93;;
38865;SDS011;62686;48.984;8.394;2022-12-18T08:25:00;74.83;;;34.83;;
38865;SDS011;62686;48.984;8.394;2022-12-18T08:27:30;72.57;;;34.13;;
38865;SDS011;62686;48.984;8.394;2022-12-18T08:29:58;70.97;;;32.80;;
38865;SDS011;62686;48.984;8.394;2022-12-18T08:32:27;75.20;;;35.70;;
38865;SDS011;62686;48.984;8.394;2022-12-18T08:34:55;75.13;;;33.50;;
38865;SDS011;62686;48.984;8.394;2022-12-18T08:37:23;75.53;;;34.00;;
38865;SDS011;62686;48.984;8.394;2022-12-18T08:39:51;79.33;;;35.00;;
38865;SDS011;62686;48.984;8.394;2022-12-18T08:42:19;79.47;;;34.30;;
38865;SDS011;62686;48.984;8.394;2022-12-18T08:45:07;76.37;;;34.70;;
38865;SDS011;62686;48.984;8.394;2022-12-18T08:47:36;71.20;;;33.47;;
38865;SDS011;62686;48.984;8.394;2022-12-18T08:50:04;64.43;;;32.57;;
38865;SDS011;62686;48.984;8.394;2022-12-18T08:52:33;73.67;;;33.43;;
38865;SDS011;62686;48.984;8.394;2022-12-18T08:55:03;75.63;;;33.80;;
38865;SDS011;62686;48.984;8.394;2022-12-18T08:57:32;77.03;;;34.07;;
38865;SDS011;62686;48.984;8.394;2022-12-18T09:00:00;64.60;;;32.83;;
38865;SDS011;62686;48.984;8.394;2022-12-18T09:02:30;73.47;;;34.13;;
38865;SDS011;62686;48.984;8.394;2022-12-18T09:04:58;69.73;;;33.47;;
38865;SDS011;62686;48.984;8.394;2022-12-18T09:07:26;71.60;;;32.53;;
38865;SDS011;62686;48.984;8.394;2022-12-18T09:09:54;68.10;;;32.83;;
38865;SDS011;62686;48.984;8.394;2022-12-18T09:12:22;71.63;;;32.43;;
38865;SDS011;62686;48.984;8.394;2022-12-18T09:14:50;63.17;;;32.33;;
38865;SDS011;62686;48.984;8.394;2022-12-18T09:17:18;63.87;;;32.07;;
38865;SDS011;62686;48.984;8.394;2022-12-18T09:19:48;69.47;;;31.80;;
38865;SDS011;62686;48.984;8.394;2022-12-18T09:22:16;70.23;;;32.37;;
38865;SDS011;62686;48.984;8.394;2022-12-18T09:24:44;68.87;;;33.27;;
38865;SDS011;62686;48.984;8.394;2022-12-18T09:27:12;64.13;;;32.43;;
38865;SDS011;62686;48.984;8.394;2022-12-18T09:29:40;64.20;;;31.20;;
38865;SDS011;62686;48.984;8.394;2022-12-18T09:32:08;61.27;;;32.53;;
38865;SDS011;62686;48.984;8.394;2022-12-18T09:34:36;69.17;;;32.53;;
38865;SDS011;62686;48.984;8.394;2022-12-18T09:37:06;53.73;;;30.47;;
38865;SDS011;62686;48.984;8.394;2022-12-18T09:39:37;64.40;;;32.00;;
38865;SDS011;62686;48.984;8.394;2022-12-18T09:42:05;64.17;;;32.40;;
38865;SDS011;62686;48.984;8.394;2022-12-18T09:44:38;57.23;;;30.50;;
38865;SDS011;62686;48.984;8.394;2022-12-18T09:47:11;59.60;;;31.23;;
38865;SDS011;62686;48.984;8.394;2022-12-18T09:49:45;60.70;;;30.83;;
38865;SDS011;62686;48.984;8.394;2022-12-18T09:52:17;61.53;;;30.13;;
38865;SDS011;62686;48.984;8.394;2022-12-18T09:54:52;65.33;;;30.03;;
38865;SDS011;62686;48.984;8.394;2022-12-18T09:57:23;64.27;;;32.93;;
38865;SDS011;62686;48.984;8.394;2022-12-18T09:59:53;70.97;;;35.40;;
38865;SDS011;62686;48.984;8.394;2022-12-18T10:02:24;51.77;;;29.93;;
38865;SDS011;62686;48.984;8.394;2022-12-18T10:04:57;58.13;;;30.07;;
38865;SDS011;62686;48.984;8.394;2022-12-18T10:07:35;62.83;;;31.47;;
38865;SDS011;62686;48.984;8.394;2022-12-18T10:10:14;63.90;;;32.27;;
38865;SDS011;62686;48.984;8.394;2022-12-18T10:12:52;61.03;;;31.43;;
38865;SDS011;62686;48.984;8.394;2022-12-18T10:15:29;64.63;;;32.80;;
38865;SDS011;62686;48.984;8.394;2022-12-18T10:18:02;59.70;;;31.80;;
38865;SDS011;62686;48.984;8.394;2022-12-18T10:20:43;66.00;;;32.60;;
38865;SDS011;62686;48.984;8.394;2022-12-18T10:23:17;60.77;;;32.67;;
38865;SDS011;62686;48.984;8.394;2022-12-18T10:25:53;62.20;;;32.27;;
38865;SDS011;62686;48.984;8.394;2022-12-18T10:28:25;75.20;;;33.07;;
38865;SDS011;62686;48.984;8.394;2022-12-18T10:30:54;67.73;;;33.83;;
38865;SDS011;62686;48.984;8.394;2022-12-18T10:33:23;63.33;;;32.73;;
38865;SDS011;62686;48.984;8.394;2022-12-18T10:35:55;65.33;;;31.23;;
38865;SDS011;62686;48.984;8.394;2022-12-18T10:38:25;63.67;;;32.63;;
38865;SDS011;62686;48.984;8.394;2022-12-18T10:40:55;67.43;;;32.20;;
38865;SDS011;62686;48.984;8.394;2022-12-18T10:43:25;64.87;;;34.07;;
38865;SDS011;62686;48.984;8.394;2022-12-18T10:45:58;61.17;;;31.00;;
38865;SDS011;62686;48.984;8.394;2022-12-18T10:48:28;61.23;;;32.47;;
38865;SDS011;62686;48.984;8.394;2022-12-18T10:50:59;64.83;;;33.03;;
38865;SDS011;62686;48.984;8.394;2022-12-18T10:53:37;65.20;;;33.30;;
38865;SDS011;62686;48.984;8.394;2022-12-18T10:56:08;61.47;;;31.03;;
38865;SDS011;62686;48.984;8.394;2022-12-18T10:58:37;67.30;;;32.83;;
38865;SDS011;62686;48.984;8.394;2022-12-18T11:01:07;63.90;;;32.13;;
38865;SDS011;62686;48.984;8.394;2022-12-18T11:03:38;69.60;;;33.60;;
38865;SDS011;62686;48.984;8.394;2022-12-18T11:06:09;67.13;;;32.47;;
38865;SDS011;62686;48.984;8.394;2022-12-18T11:08:40;59.67;;;31.97;;
38865;SDS011;62686;48.984;8.394;2022-12-18T11:11:15;61.40;;;31.40;;
38865;SDS011;62686;48.984;8.394;2022-12-18T11:13:51;57.60;;;30.93;;
38865;SDS011;62686;48.984;8.394;2022-12-18T11:16:28;61.50;;;32.13;;
38865;SDS011;62686;48.984;8.394;2022-12-18T11:19:08;57.67;;;30.57;;
38865;SDS011;62686;48.984;8.394;2022-12-18T11:21:42;65.90;;;32.93;;
38865;SDS011;62686;48.984;8.394;2022-12-18T11:24:17;58.23;;;31.47;;
38865;SDS011;62686;48.984;8.394;2022-12-18T11:26:49;65.17;;;35.50;;
38865;SDS011;62686;48.984;8.394;2022-12-18T11:29:23;62.40;;;33.70;;
38865;SDS011;62686;48.984;8.394;2022-12-18T11:32:08;58.07;;;30.53;;
38865;SDS011;62686;48.984;8.394;2022-12-18T11:34:58;65.60;;;32.50;;
38865;SDS011;62686;48.984;8.394;2022-12-18T11:37:32;61.80;;;31.10;;
38865;SDS011;62686;48.984;8.394;2022-12-18T11:40:05;61.83;;;32.07;;
38865;SDS011;62686;48.984;8.394;2022-12-18T11:42:38;63.80;;;32.70;;
38865;SDS011;62686;48.984;8.394;2022-12-18T11:49:07;60.43;;;32.13;;
38865;SDS011;62686;48.984;8.394;2022-12-18T11:51:43;58.63;;;32.30;;
38865;SDS011;62686;48.984;8.394;2022-12-18T11:54:21;60.87;;;31.90;;
38865;SDS011;62686;48.984;8.394;2022-12-18T11:56:51;56.93;;;30.40;;
38865;SDS011;62686;48.984;8.394;2022-12-18T11:59:26;56.93;;;30.60;;
38865;SDS011;62686;48.984;8.394;2022-12-18T12:02:04;59.23;;;31.43;;
38865;SDS011;62686;48.984;8.394;2022-12-18T12:07:47;56.70;;;30.50;;
38865;SDS011;62686;48.984;8.394;2022-12-18T12:10:27;56.37;;;28.57;;
38865;SDS011;62686;48.984;8.394;2022-12-18T12:13:16;58.63;;;29.43;;
38865;SDS011;62686;48.984;8.394;2022-12-18T12:15:58;55.20;;;31.03;;
38865;SDS011;62686;48.984;8.394;2022-12-18T12:18:37;58.93;;;31.70;;
38865;SDS011;62686;48.984;8.394;2022-12-18T12:21:16;62.00;;;31.60;;
38865;SDS011;62686;48.984;8.394;2022-12-18T12:23:50;59.23;;;30.13;;
38865;SDS011;62686;48.984;8.394;2022-12-18T12:26:23;60.17;;;30.90;;
38865;SDS011;62686;48.984;8.394;2022-12-18T12:29:04;57.00;;;30.93;;
38865;SDS011;62686;48.984;8.394;2022-12-18T12:31:56;58.57;;;32.07;;
38865;SDS011;62686;48.984;8.394;2022-12-18T12:34:37;52.47;;;29.90;;
38865;SDS011;62686;48.984;8.394;2022-12-18T12:37:20;59.00;;;30.87;;
38865;SDS011;62686;48.984;8.394;2022-12-18T12:40:00;56.43;;;29.87;;
38865;SDS011;62686;48.984;8.394;2022-12-18T12:42:41;59.23;;;30.70;;
38865;SDS011;62686;48.984;8.394;2022-12-18T12:45:36;68.90;;;33.47;;
38865;SDS011;62686;48.984;8.394;2022-12-18T12:48:11;60.93;;;31.37;;
38865;SDS011;62686;48.984;8.394;2022-12-18T12:50:48;54.53;;;30.07;;
38865;SDS011;62686;48.984;8.394;2022-12-18T12:53:20;58.93;;;30.37;;
38865;SDS011;62686;48.984;8.394;2022-12-18T12:55:53;66.70;;;31.43;;
38865;SDS011;62686;48.984;8.394;2022-12-18T12:58:26;57.17;;;30.57;;
38865;SDS011;62686;48.984;8.394;2022-12-18T13:01:05;58.20;;;30.40;;
38865;SDS011;62686;48.984;8.394;2022-12-18T13:03:41;61.57;;;31.53;;
38865;SDS011;62686;48.984;8.394;2022-12-18T13:06:23;58.70;;;31.23;;
38865;SDS011;62686;48.984;8.394;2022-12-18T13:09:05;62.33;;;30.37;;
38865;SDS011;62686;48.984;8.394;2022-12-18T13:11:45;57.43;;;32.43;;
38865;SDS011;62686;48.984;8.394;2022-12-18T13:14:32;56.97;;;31.77;;
38865;SDS011;62686;48.984;8.394;2022-12-18T13:17:15;59.03;;;32.00;;
38865;SDS011;62686;48.984;8.394;2022-12-18T13:22:59;57.47;;;30.30;;
38865;SDS011;62686;48.984;8.394;2022-12-18T13:25:32;56.77;;;30.17;;
38865;SDS011;62686;48.984;8.394;2022-12-18T13:28:06;54.97;;;29.93;;
38865;SDS011;62686;48.984;8.394;2022-12-18T13:30:49;55.93;;;29.73;;
38865;SDS011;62686;48.984;8.394;2022-12-18T13:33:38;58.37;;;30.30;;
38865;SDS011;62686;48.984;8.394;2022-12-18T13:36:33;56.00;;;31.17;;
38865;SDS011;62686;48.984;8.394;2022-12-18T13:39:23;53.20;;;29.37;;
38865;SDS011;62686;48.984;8.394;2022-12-18T13:45:40;55.80;;;30.03;;
38865;SDS011;62686;48.984;8.394;2022-12-18T13:51:06;55.50;;;31.47;;
38865;SDS011;62686;48.984;8.394;2022-12-18T13:53:38;50.87;;;29.27;;
38865;SDS011;62686;48.984;8.394;2022-12-18T13:56:14;56.83;;;31.40;;
38865;SDS011;62686;48.984;8.394;2022-12-18T14:01:44;54.23;;;30.67;;
38865;SDS011;62686;48.984;8.394;2022-12-18T14:04:19;61.37;;;31.43;;
38865;SDS011;62686;48.984;8.394;2022-12-18T14:06:51;57.00;;;32.50;;
38865;SDS011;62686;48.984;8.394;2022-12-18T14:09:24;58.33;;;32.13;;
38865;SDS011;62686;48.984;8.394;2022-12-18T14:11:54;62.33;;;32.53;;
38865;SDS011;62686;48.984;8.394;2022-12-18T14:14:45;59.43;;;33.20;;
38865;SDS011;62686;48.984;8.394;2022-12-18T14:17:16;57.33;;;32.50;;
38865;SDS011;62686;48.984;8.394;2022-12-18T14:19:45;59.90;;;32.57;;
38865;SDS011;62686;48.984;8.394;2022-12-18T14:22:20;55.67;;;30.60;;
38865;SDS011;62686;48.984;8.394;2022-12-18T14:28:03;55.03;;;29.70;;
38865;SDS011;62686;48.984;8.394;2022-12-18T14:30:41;55.50;;;31.23;;
38865;SDS011;62686;48.984;8.394;2022-12-18T14:33:10;54.30;;;30.90;;
38865;SDS011;62686;48.984;8.394;2022-12-18T14:35:41;53.63;;;30.10;;
38865;SDS011;62686;48.984;8.394;2022-12-18T14:38:19;59.83;;;30.97;;
38865;SDS011;62686;48.984;8.394;2022-12-18T14:40:53;58.67;;;31.40;;
38865;SDS011;62686;48.984;8.394;2022-12-18T14:43:22;58.73;;;31.53;;
38865;SDS011;62686;48.984;8.394;2022-12-18T14:45:53;60.57;;;31.90;;
38865;SDS011;62686;48.984;8.394;2022-12-18T14:48:33;56.47;;;31.63;;
38865;SDS011;62686;48.984;8.394;2022-12-18T14:51:04;54.93;;;31.73;;
38865;SDS011;62686;48.984;8.394;2022-12-18T14:53:39;55.57;;;31.00;;
38865;SDS011;62686;48.984;8.394;2022-12-18T14:56:14;60.97;;;32.60;;
38865;SDS011;62686;48.984;8.394;2022-12-18T14:58:48;58.40;;;32.33;;
38865;SDS011;62686;48.984;8.394;2022-12-18T15:01:20;62.97;;;34.50;;
38865;SDS011;62686;48.984;8.394;2022-12-18T15:03:50;57.63;;;33.23;;
38865;SDS011;62686;48.984;8.394;2022-12-18T15:06:24;59.23;;;32.77;;
38865;SDS011;62686;48.984;8.394;2022-12-18T15:08:56;62.93;;;33.63;;
38865;SDS011;62686;48.984;8.394;2022-12-18T15:11:26;62.57;;;34.67;;
38865;SDS011;62686;48.984;8.394;2022-12-18T15:14:21;82.67;;;47.40;;
38865;SDS011;62686;48.984;8.394;2022-12-18T15:17:02;59.67;;;36.77;;
38865;SDS011;62686;48.984;8.394;2022-12-18T15:19:37;64.13;;;35.20;;
38865;SDS011;62686;48.984;8.394;2022-12-18T15:24:55;61.23;;;33.00;;
38865;SDS011;62686;48.984;8.394;2022-12-18T15:27:26;60.30;;;33.63;;